sensor_id;sensor_type;location;lat;lon;timestamp;P1;durP1;ratioP1;P2;durP2;ratioP2
56073;SDS011;41950;55.840;37.442;2023-10-13T07:09:07;3.25;;;0.73;;
56073;SDS011;41950;55.840;37.442;2023-10-13T07:11:40;3.03;;;0.60;;
56073;SDS011;41950;55.840;37.442;2023-10-13T07:14:08;3.65;;;0.70;;
56073;SDS011;41950;55.840;37.442;2023-10-13T07:16:42;2.72;;;0.75;;
56073;SDS011;41950;55.840;37.442;2023-10-13T07:19:12;2.17;;;0.60;;
56073;SDS011;41950;55.840;37.442;2023-10-13T07:21:43;3.03;;;0.70;;
56073;SDS011;41950;55.840;37.442;2023-10-13T07:24:11;3.08;;;0.60;;
56073;SDS011;41950;55.840;37.442;2023-10-13T07:26:41;2.30;;;0.80;;
56073;SDS011;41950;55.840;37.442;2023-10-13T07:29:12;4.20;;;0.90;;
56073;SDS011;41950;55.840;37.442;2023-10-13T07:43:35;2.30;;;0.70;;
56073;SDS011;41950;55.840;37.442;2023-10-13T07:46:04;2.88;;;0.88;;
56073;SDS011;41950;55.840;37.442;2023-10-13T07:48:40;3.50;;;0.90;;
56073;SDS011;41950;55.840;37.442;2023-10-13T07:51:08;4.97;;;1.38;;
56073;SDS011;41950;55.840;37.442;2023-10-13T07:53:52;3.55;;;0.90;;
56073;SDS011;41950;55.840;37.442;2023-10-13T08:17:19;2.67;;;1.10;;
56073;SDS011;41950;55.840;37.442;2023-10-13T08:19:50;2.53;;;0.77;;
56073;SDS011;41950;55.840;37.442;2023-10-13T08:22:16;3.20;;;0.98;;
56073;SDS011;41950;55.840;37.442;2023-10-13T08:24:49;3.35;;;1.00;;
56073;SDS011;41950;55.840;37.442;2023-10-13T08:27:18;2.17;;;0.65;;
56073;SDS011;41950;55.840;37.442;2023-10-13T08:30:00;4.05;;;1.33;;
56073;SDS011;41950;55.840;37.442;2023-10-13T08:32:29;2.65;;;0.63;;
56073;SDS011;41950;55.840;37.442;2023-10-13T08:34:55;3.78;;;0.80;;
56073;SDS011;41950;55.840;37.442;2023-10-13T08:37:34;4.22;;;0.90;;
56073;SDS011;41950;55.840;37.442;2023-10-13T08:40:18;3.10;;;1.38;;
56073;SDS011;41950;55.840;37.442;2023-10-13T08:43:06;1.92;;;0.55;;
56073;SDS011;41950;55.840;37.442;2023-10-13T08:48:09;4.85;;;0.80;;
56073;SDS011;41950;55.840;37.442;2023-10-13T08:50:46;0.65;;;0.30;;
56073;SDS011;41950;55.840;37.442;2023-10-13T08:53:17;3.03;;;0.90;;
56073;SDS011;41950;55.840;37.442;2023-10-13T08:58:44;2.88;;;0.70;;
56073;SDS011;41950;55.840;37.442;2023-10-13T09:01:23;4.50;;;0.93;;
56073;SDS011;41950;55.840;37.442;2023-10-13T09:06:48;3.45;;;1.23;;
56073;SDS011;41950;55.840;37.442;2023-10-13T09:09:50;1.58;;;0.45;;
56073;SDS011;41950;55.840;37.442;2023-10-13T09:12:21;3.92;;;1.20;;
56073;SDS011;41950;55.840;37.442;2023-10-13T09:17:42;3.08;;;1.00;;
56073;SDS011;41950;55.840;37.442;2023-10-13T09:20:38;1.65;;;0.50;;
56073;SDS011;41950;55.840;37.442;2023-10-13T09:23:08;4.30;;;0.80;;
56073;SDS011;41950;55.840;37.442;2023-10-13T09:25:38;3.17;;;0.90;;
56073;SDS011;41950;55.840;37.442;2023-10-13T09:28:19;3.85;;;1.20;;
56073;SDS011;41950;55.840;37.442;2023-10-13T09:30:48;3.83;;;0.88;;
56073;SDS011;41950;55.840;37.442;2023-10-13T09:33:21;2.70;;;0.90;;
56073;SDS011;41950;55.840;37.442;2023-10-13T09:35:58;3.22;;;0.98;;
56073;SDS011;41950;55.840;37.442;2023-10-13T09:38:28;5.38;;;1.63;;
56073;SDS011;41950;55.840;37.442;2023-10-13T09:40:54;3.05;;;1.15;;
56073;SDS011;41950;55.840;37.442;2023-10-13T09:43:26;4.57;;;1.20;;
56073;SDS011;41950;55.840;37.442;2023-10-13T09:45:58;3.53;;;1.10;;
56073;SDS011;41950;55.840;37.442;2023-10-13T09:48:39;2.42;;;0.85;;
56073;SDS011;41950;55.840;37.442;2023-10-13T09:51:12;2.03;;;0.60;;
56073;SDS011;41950;55.840;37.442;2023-10-13T09:53:47;1.42;;;0.50;;
56073;SDS011;41950;55.840;37.442;2023-10-13T09:56:25;3.13;;;0.70;;
56073;SDS011;41950;55.840;37.442;2023-10-13T09:59:08;2.97;;;0.82;;
56073;SDS011;41950;55.840;37.442;2023-10-13T10:01:41;2.47;;;0.70;;
56073;SDS011;41950;55.840;37.442;2023-10-13T10:04:22;2.17;;;0.73;;
56073;SDS011;41950;55.840;37.442;2023-10-13T10:06:52;2.28;;;0.70;;
56073;SDS011;41950;55.840;37.442;2023-10-13T10:09:18;2.25;;;0.60;;
56073;SDS011;41950;55.840;37.442;2023-10-13T10:17:21;2.50;;;0.73;;
56073;SDS011;41950;55.840;37.442;2023-10-13T10:19:54;2.58;;;0.68;;
56073;SDS011;41950;55.840;37.442;2023-10-13T10:25:09;2.85;;;0.80;;
56073;SDS011;41950;55.840;37.442;2023-10-13T10:30:26;3.10;;;0.77;;
56073;SDS011;41950;55.840;37.442;2023-10-13T10:32:56;1.30;;;0.47;;
56073;SDS011;41950;55.840;37.442;2023-10-13T10:35:27;2.20;;;0.70;;
56073;SDS011;41950;55.840;37.442;2023-10-13T10:38:06;0.95;;;0.50;;
56073;SDS011;41950;55.840;37.442;2023-10-13T10:40:52;2.65;;;0.50;;
56073;SDS011;41950;55.840;37.442;2023-10-13T10:46:12;1.95;;;0.50;;
56073;SDS011;41950;55.840;37.442;2023-10-13T10:48:39;2.97;;;0.60;;
56073;SDS011;41950;55.840;37.442;2023-10-13T10:51:11;4.63;;;1.00;;
56073;SDS011;41950;55.840;37.442;2023-10-13T10:53:44;2.70;;;0.77;;
56073;SDS011;41950;55.840;37.442;2023-10-13T10:56:10;2.38;;;0.70;;
56073;SDS011;41950;55.840;37.442;2023-10-13T10:58:47;2.10;;;0.70;;
56073;SDS011;41950;55.840;37.442;2023-10-13T11:01:13;2.58;;;0.90;;
56073;SDS011;41950;55.840;37.442;2023-10-13T11:03:52;2.60;;;1.00;;
56073;SDS011;41950;55.840;37.442;2023-10-13T11:06:22;2.03;;;0.70;;
56073;SDS011;41950;55.840;37.442;2023-10-13T11:09:00;3.33;;;0.80;;
56073;SDS011;41950;55.840;37.442;2023-10-13T11:11:29;2.85;;;0.80;;
56073;SDS011;41950;55.840;37.442;2023-10-13T11:14:00;2.53;;;0.68;;
56073;SDS011;41950;55.840;37.442;2023-10-13T11:16:49;4.88;;;1.25;;
56073;SDS011;41950;55.840;37.442;2023-10-13T11:19:40;1.80;;;0.82;;
56073;SDS011;41950;55.840;37.442;2023-10-13T11:24:59;1.50;;;0.50;;
56073;SDS011;41950;55.840;37.442;2023-10-13T11:27:29;2.53;;;0.80;;
56073;SDS011;41950;55.840;37.442;2023-10-13T11:30:10;2.80;;;0.77;;
56073;SDS011;41950;55.840;37.442;2023-10-13T11:32:45;1.95;;;0.60;;
56073;SDS011;41950;55.840;37.442;2023-10-13T11:35:12;2.10;;;0.60;;
56073;SDS011;41950;55.840;37.442;2023-10-13T11:37:47;2.13;;;0.60;;
56073;SDS011;41950;55.840;37.442;2023-10-13T11:40:22;0.93;;;0.38;;
56073;SDS011;41950;55.840;37.442;2023-10-13T11:43:06;2.55;;;0.80;;
56073;SDS011;41950;55.840;37.442;2023-10-13T11:45:42;2.42;;;0.80;;
56073;SDS011;41950;55.840;37.442;2023-10-13T11:48:28;3.22;;;0.80;;
56073;SDS011;41950;55.840;37.442;2023-10-13T11:51:03;2.25;;;0.77;;
56073;SDS011;41950;55.840;37.442;2023-10-13T11:53:33;2.70;;;0.55;;
56073;SDS011;41950;55.840;37.442;2023-10-13T11:56:08;2.15;;;1.10;;
56073;SDS011;41950;55.840;37.442;2023-10-13T11:58:37;2.88;;;1.00;;
56073;SDS011;41950;55.840;37.442;2023-10-13T12:01:03;2.40;;;0.60;;
56073;SDS011;41950;55.840;37.442;2023-10-13T12:03:38;2.45;;;0.77;;
56073;SDS011;41950;55.840;37.442;2023-10-13T12:06:23;1.83;;;0.80;;
56073;SDS011;41950;55.840;37.442;2023-10-13T12:09:15;2.15;;;0.73;;
56073;SDS011;41950;55.840;37.442;2023-10-13T12:12:03;2.83;;;1.00;;
56073;SDS011;41950;55.840;37.442;2023-10-13T12:14:30;4.85;;;1.13;;
56073;SDS011;41950;55.840;37.442;2023-10-13T12:17:03;3.85;;;1.00;;
56073;SDS011;41950;55.840;37.442;2023-10-13T12:19:36;1.85;;;0.60;;
56073;SDS011;41950;55.840;37.442;2023-10-13T12:22:04;2.55;;;0.60;;
56073;SDS011;41950;55.840;37.442;2023-10-13T12:24:33;2.33;;;0.82;;
56073;SDS011;41950;55.840;37.442;2023-10-13T12:27:02;2.55;;;0.70;;
56073;SDS011;41950;55.840;37.442;2023-10-13T12:29:47;1.88;;;0.65;;
56073;SDS011;41950;55.840;37.442;2023-10-13T12:32:13;2.45;;;0.60;;
56073;SDS011;41950;55.840;37.442;2023-10-13T12:34:40;2.85;;;0.80;;
56073;SDS011;41950;55.840;37.442;2023-10-13T12:37:47;2.40;;;0.55;;
56073;SDS011;41950;55.840;37.442;2023-10-13T12:40:16;1.88;;;0.60;;
56073;SDS011;41950;55.840;37.442;2023-10-13T12:43:02;3.08;;;0.88;;
56073;SDS011;41950;55.840;37.442;2023-10-13T12:45:48;3.15;;;0.80;;
56073;SDS011;41950;55.840;37.442;2023-10-13T12:48:34;3.58;;;0.95;;
56073;SDS011;41950;55.840;37.442;2023-10-13T12:51:20;2.45;;;0.80;;
56073;SDS011;41950;55.840;37.442;2023-10-13T12:53:52;3.00;;;1.00;;
56073;SDS011;41950;55.840;37.442;2023-10-13T12:56:19;3.00;;;0.90;;
56073;SDS011;41950;55.840;37.442;2023-10-13T12:58:54;3.53;;;1.40;;
56073;SDS011;41950;55.840;37.442;2023-10-13T13:01:26;3.63;;;1.23;;
56073;SDS011;41950;55.840;37.442;2023-10-13T13:03:59;3.95;;;1.20;;
56073;SDS011;41950;55.840;37.442;2023-10-13T13:06:28;3.72;;;1.20;;
56073;SDS011;41950;55.840;37.442;2023-10-13T13:08:58;4.43;;;1.00;;
56073;SDS011;41950;55.840;37.442;2023-10-13T13:11:25;3.97;;;0.80;;
56073;SDS011;41950;55.840;37.442;2023-10-13T13:13:54;4.22;;;1.45;;
56073;SDS011;41950;55.840;37.442;2023-10-13T13:16:20;2.65;;;0.95;;
56073;SDS011;41950;55.840;37.442;2023-10-13T13:18:55;3.40;;;1.17;;
56073;SDS011;41950;55.840;37.442;2023-10-13T13:21:21;3.75;;;1.33;;
56073;SDS011;41950;55.840;37.442;2023-10-13T13:23:50;4.82;;;1.65;;
56073;SDS011;41950;55.840;37.442;2023-10-13T13:26:16;2.72;;;0.93;;
56073;SDS011;41950;55.840;37.442;2023-10-13T13:28:46;2.38;;;0.80;;
56073;SDS011;41950;55.840;37.442;2023-10-13T13:31:17;2.80;;;1.00;;
56073;SDS011;41950;55.840;37.442;2023-10-13T13:33:42;3.42;;;0.80;;
56073;SDS011;41950;55.840;37.442;2023-10-13T13:36:09;5.80;;;1.67;;
56073;SDS011;41950;55.840;37.442;2023-10-13T13:41:16;5.03;;;1.65;;
56073;SDS011;41950;55.840;37.442;2023-10-13T13:43:43;3.25;;;1.13;;
56073;SDS011;41950;55.840;37.442;2023-10-13T13:46:19;3.22;;;1.33;;
56073;SDS011;41950;55.840;37.442;2023-10-13T13:48:50;5.22;;;1.25;;
56073;SDS011;41950;55.840;37.442;2023-10-13T13:51:23;4.18;;;1.00;;
56073;SDS011;41950;55.840;37.442;2023-10-13T13:53:54;4.32;;;0.90;;
56073;SDS011;41950;55.840;37.442;2023-10-13T13:56:21;5.50;;;1.30;;
56073;SDS011;41950;55.840;37.442;2023-10-13T13:58:50;4.35;;;0.90;;
56073;SDS011;41950;55.840;37.442;2023-10-13T14:01:18;3.95;;;1.08;;
56073;SDS011;41950;55.840;37.442;2023-10-13T14:03:49;4.28;;;1.20;;
56073;SDS011;41950;55.840;37.442;2023-10-13T14:06:19;5.70;;;1.08;;
56073;SDS011;41950;55.840;37.442;2023-10-13T14:08:48;2.92;;;1.05;;
56073;SDS011;41950;55.840;37.442;2023-10-13T14:11:18;4.55;;;0.98;;
56073;SDS011;41950;55.840;37.442;2023-10-13T14:13:50;4.20;;;1.17;;
56073;SDS011;41950;55.840;37.442;2023-10-13T14:16:21;3.75;;;1.33;;
56073;SDS011;41950;55.840;37.442;2023-10-13T14:18:51;3.97;;;1.30;;
56073;SDS011;41950;55.840;37.442;2023-10-13T14:21:17;4.70;;;1.30;;
56073;SDS011;41950;55.840;37.442;2023-10-13T14:23:47;3.65;;;1.30;;
56073;SDS011;41950;55.840;37.442;2023-10-13T14:26:15;3.53;;;1.10;;
56073;SDS011;41950;55.840;37.442;2023-10-13T14:28:46;3.22;;;1.13;;
56073;SDS011;41950;55.840;37.442;2023-10-13T14:31:32;2.65;;;0.80;;
56073;SDS011;41950;55.840;37.442;2023-10-13T14:33:58;4.00;;;1.17;;
56073;SDS011;41950;55.840;37.442;2023-10-13T14:36:24;2.58;;;0.80;;
56073;SDS011;41950;55.840;37.442;2023-10-13T14:38:53;5.03;;;1.08;;
56073;SDS011;41950;55.840;37.442;2023-10-13T14:41:20;4.47;;;1.20;;
56073;SDS011;41950;55.840;37.442;2023-10-13T14:43:45;5.70;;;1.40;;
56073;SDS011;41950;55.840;37.442;2023-10-13T14:46:16;3.85;;;0.90;;
56073;SDS011;41950;55.840;37.442;2023-10-13T14:48:48;4.63;;;1.08;;
56073;SDS011;41950;55.840;37.442;2023-10-13T14:51:17;2.67;;;1.02;;
56073;SDS011;41950;55.840;37.442;2023-10-13T14:53:43;6.43;;;1.50;;
56073;SDS011;41950;55.840;37.442;2023-10-13T14:56:12;3.72;;;0.90;;
56073;SDS011;41950;55.840;37.442;2023-10-13T14:58:39;3.72;;;1.17;;
56073;SDS011;41950;55.840;37.442;2023-10-13T15:01:11;4.43;;;1.27;;
56073;SDS011;41950;55.840;37.442;2023-10-13T15:03:44;4.35;;;1.20;;
56073;SDS011;41950;55.840;37.442;2023-10-13T15:06:20;6.47;;;1.80;;
56073;SDS011;41950;55.840;37.442;2023-10-13T15:08:54;4.88;;;1.50;;
56073;SDS011;41950;55.840;37.442;2023-10-13T15:11:20;6.15;;;1.42;;
56073;SDS011;41950;55.840;37.442;2023-10-13T15:13:47;4.43;;;1.15;;
56073;SDS011;41950;55.840;37.442;2023-10-13T15:16:17;3.90;;;1.40;;
56073;SDS011;41950;55.840;37.442;2023-10-13T15:18:45;5.65;;;1.70;;
56073;SDS011;41950;55.840;37.442;2023-10-13T15:21:21;4.72;;;1.50;;
56073;SDS011;41950;55.840;37.442;2023-10-13T15:23:59;5.15;;;1.70;;
56073;SDS011;41950;55.840;37.442;2023-10-13T15:26:29;4.75;;;1.40;;
56073;SDS011;41950;55.840;37.442;2023-10-13T15:28:55;5.53;;;1.42;;
56073;SDS011;41950;55.840;37.442;2023-10-13T15:31:22;4.63;;;1.80;;
56073;SDS011;41950;55.840;37.442;2023-10-13T15:33:54;5.28;;;1.50;;
56073;SDS011;41950;55.840;37.442;2023-10-13T15:36:23;5.32;;;1.85;;
56073;SDS011;41950;55.840;37.442;2023-10-13T15:38:50;5.55;;;1.88;;
56073;SDS011;41950;55.840;37.442;2023-10-13T15:41:23;5.80;;;1.85;;
56073;SDS011;41950;55.840;37.442;2023-10-13T15:43:53;4.93;;;1.58;;
56073;SDS011;41950;55.840;37.442;2023-10-13T15:46:20;6.00;;;1.88;;
56073;SDS011;41950;55.840;37.442;2023-10-13T15:48:49;6.75;;;2.47;;
56073;SDS011;41950;55.840;37.442;2023-10-13T15:51:16;5.38;;;1.98;;
56073;SDS011;41950;55.840;37.442;2023-10-13T15:53:43;6.13;;;2.55;;
56073;SDS011;41950;55.840;37.442;2023-10-13T15:56:10;6.13;;;2.38;;
56073;SDS011;41950;55.840;37.442;2023-10-13T15:58:43;5.65;;;1.83;;
56073;SDS011;41950;55.840;37.442;2023-10-13T16:01:15;6.13;;;2.20;;
56073;SDS011;41950;55.840;37.442;2023-10-13T16:03:42;8.45;;;2.20;;
56073;SDS011;41950;55.840;37.442;2023-10-13T16:06:11;5.18;;;1.98;;
56073;SDS011;41950;55.840;37.442;2023-10-13T16:08:38;5.03;;;1.75;;
56073;SDS011;41950;55.840;37.442;2023-10-13T16:11:14;7.68;;;1.90;;
56073;SDS011;41950;55.840;37.442;2023-10-13T16:13:45;6.13;;;2.00;;
56073;SDS011;41950;55.840;37.442;2023-10-13T16:16:16;9.02;;;2.13;;
56073;SDS011;41950;55.840;37.442;2023-10-13T16:18:49;5.75;;;2.00;;
56073;SDS011;41950;55.840;37.442;2023-10-13T16:21:19;5.30;;;1.80;;
56073;SDS011;41950;55.840;37.442;2023-10-13T16:23:46;6.40;;;1.80;;
56073;SDS011;41950;55.840;37.442;2023-10-13T16:26:17;6.20;;;2.00;;
56073;SDS011;41950;55.840;37.442;2023-10-13T16:28:47;4.60;;;1.77;;
56073;SDS011;41950;55.840;37.442;2023-10-13T16:31:13;5.40;;;1.73;;
56073;SDS011;41950;55.840;37.442;2023-10-13T16:33:39;7.00;;;2.10;;
56073;SDS011;41950;55.840;37.442;2023-10-13T16:36:07;6.82;;;2.00;;
56073;SDS011;41950;55.840;37.442;2023-10-13T16:38:36;5.68;;;1.70;;
56073;SDS011;41950;55.840;37.442;2023-10-13T16:41:02;5.07;;;1.92;;
56073;SDS011;41950;55.840;37.442;2023-10-13T16:43:32;5.07;;;2.10;;
56073;SDS011;41950;55.840;37.442;2023-10-13T16:46:01;5.75;;;1.90;;
56073;SDS011;41950;55.840;37.442;2023-10-13T16:48:33;5.72;;;1.67;;
56073;SDS011;41950;55.840;37.442;2023-10-13T16:51:02;4.95;;;1.67;;
56073;SDS011;41950;55.840;37.442;2023-10-13T16:53:31;4.65;;;1.83;;
56073;SDS011;41950;55.840;37.442;2023-10-13T16:56:00;4.30;;;1.50;;
56073;SDS011;41950;55.840;37.442;2023-10-13T16:58:31;4.20;;;1.63;;
56073;SDS011;41950;55.840;37.442;2023-10-13T17:00:59;5.72;;;1.70;;
56073;SDS011;41950;55.840;37.442;2023-10-13T17:03:29;4.45;;;1.40;;
56073;SDS011;41950;55.840;37.442;2023-10-13T17:05:59;7.03;;;1.85;;
56073;SDS011;41950;55.840;37.442;2023-10-13T17:08:28;4.85;;;1.63;;
56073;SDS011;41950;55.840;37.442;2023-10-13T17:11:07;4.90;;;1.80;;
56073;SDS011;41950;55.840;37.442;2023-10-13T17:13:35;4.82;;;1.63;;
56073;SDS011;41950;55.840;37.442;2023-10-13T17:16:10;5.30;;;1.50;;
56073;SDS011;41950;55.840;37.442;2023-10-13T17:18:38;5.55;;;1.83;;
56073;SDS011;41950;55.840;37.442;2023-10-13T17:21:12;5.63;;;1.73;;
56073;SDS011;41950;55.840;37.442;2023-10-13T17:23:43;6.22;;;1.73;;
56073;SDS011;41950;55.840;37.442;2023-10-13T17:26:09;3.95;;;1.70;;
56073;SDS011;41950;55.840;37.442;2023-10-13T17:28:37;3.88;;;1.65;;
56073;SDS011;41950;55.840;37.442;2023-10-13T17:31:03;6.30;;;2.05;;
56073;SDS011;41950;55.840;37.442;2023-10-13T17:33:29;5.82;;;2.03;;
56073;SDS011;41950;55.840;37.442;2023-10-13T17:35:54;6.47;;;1.80;;
56073;SDS011;41950;55.840;37.442;2023-10-13T17:38:20;8.15;;;1.95;;
56073;SDS011;41950;55.840;37.442;2023-10-13T17:40:45;5.47;;;1.88;;
56073;SDS011;41950;55.840;37.442;2023-10-13T17:43:13;4.72;;;1.80;;
56073;SDS011;41950;55.840;37.442;2023-10-13T17:45:38;5.38;;;1.70;;
56073;SDS011;41950;55.840;37.442;2023-10-13T17:48:04;7.32;;;2.42;;
56073;SDS011;41950;55.840;37.442;2023-10-13T17:50:35;7.32;;;2.28;;
56073;SDS011;41950;55.840;37.442;2023-10-13T17:53:01;7.30;;;2.25;;
56073;SDS011;41950;55.840;37.442;2023-10-13T17:55:27;5.22;;;2.10;;
56073;SDS011;41950;55.840;37.442;2023-10-13T17:57:54;4.97;;;1.90;;
56073;SDS011;41950;55.840;37.442;2023-10-13T18:00:20;7.00;;;2.45;;
56073;SDS011;41950;55.840;37.442;2023-10-13T18:02:48;7.05;;;2.60;;
56073;SDS011;41950;55.840;37.442;2023-10-13T18:05:17;6.78;;;2.45;;
56073;SDS011;41950;55.840;37.442;2023-10-13T18:07:43;10.50;;;2.92;;
56073;SDS011;41950;55.840;37.442;2023-10-13T18:10:10;8.38;;;2.90;;
56073;SDS011;41950;55.840;37.442;2023-10-13T18:12:39;9.18;;;2.95;;
56073;SDS011;41950;55.840;37.442;2023-10-13T18:15:08;9.48;;;3.33;;
56073;SDS011;41950;55.840;37.442;2023-10-13T18:17:39;6.43;;;2.95;;
56073;SDS011;41950;55.840;37.442;2023-10-13T18:20:06;6.35;;;2.70;;
56073;SDS011;41950;55.840;37.442;2023-10-13T18:22:40;7.20;;;2.70;;
56073;SDS011;41950;55.840;37.442;2023-10-13T18:25:06;8.05;;;2.92;;
56073;SDS011;41950;55.840;37.442;2023-10-13T18:27:42;7.75;;;2.55;;
56073;SDS011;41950;55.840;37.442;2023-10-13T18:30:11;7.03;;;2.85;;
56073;SDS011;41950;55.840;37.442;2023-10-13T18:32:39;6.68;;;2.92;;
56073;SDS011;41950;55.840;37.442;2023-10-13T18:35:05;9.18;;;3.15;;
56073;SDS011;41950;55.840;37.442;2023-10-13T18:37:34;7.30;;;2.78;;
56073;SDS011;41950;55.840;37.442;2023-10-13T18:40:02;9.20;;;3.30;;
56073;SDS011;41950;55.840;37.442;2023-10-13T18:42:34;7.75;;;3.40;;
56073;SDS011;41950;55.840;37.442;2023-10-13T18:45:10;6.65;;;3.15;;
56073;SDS011;41950;55.840;37.442;2023-10-13T18:47:37;9.73;;;3.15;;
56073;SDS011;41950;55.840;37.442;2023-10-13T18:50:04;8.05;;;3.53;;
56073;SDS011;41950;55.840;37.442;2023-10-13T18:52:30;8.63;;;3.58;;
56073;SDS011;41950;55.840;37.442;2023-10-13T18:54:57;9.15;;;3.35;;
56073;SDS011;41950;55.840;37.442;2023-10-13T18:57:23;8.00;;;3.63;;
56073;SDS011;41950;55.840;37.442;2023-10-13T18:59:49;6.80;;;3.40;;
56073;SDS011;41950;55.840;37.442;2023-10-13T19:02:15;8.98;;;3.08;;
56073;SDS011;41950;55.840;37.442;2023-10-13T19:04:41;8.30;;;3.78;;
56073;SDS011;41950;55.840;37.442;2023-10-13T19:07:07;8.27;;;3.53;;
56073;SDS011;41950;55.840;37.442;2023-10-13T19:09:34;6.10;;;3.20;;
56073;SDS011;41950;55.840;37.442;2023-10-13T19:12:02;8.93;;;3.60;;
56073;SDS011;41950;55.840;37.442;2023-10-13T19:14:30;7.65;;;3.35;;
56073;SDS011;41950;55.840;37.442;2023-10-13T19:17:01;7.10;;;3.45;;
56073;SDS011;41950;55.840;37.442;2023-10-13T19:19:27;7.80;;;3.50;;
56073;SDS011;41950;55.840;37.442;2023-10-13T19:21:56;10.63;;;3.95;;
56073;SDS011;41950;55.840;37.442;2023-10-13T19:24:22;8.80;;;4.35;;
56073;SDS011;41950;55.840;37.442;2023-10-13T19:26:48;9.15;;;4.50;;
56073;SDS011;41950;55.840;37.442;2023-10-13T19:29:13;9.57;;;4.10;;
56073;SDS011;41950;55.840;37.442;2023-10-13T19:31:43;8.20;;;3.70;;
56073;SDS011;41950;55.840;37.442;2023-10-13T19:34:10;9.38;;;3.78;;
56073;SDS011;41950;55.840;37.442;2023-10-13T19:36:42;5.78;;;3.60;;
56073;SDS011;41950;55.840;37.442;2023-10-13T19:39:09;8.25;;;3.65;;
56073;SDS011;41950;55.840;37.442;2023-10-13T19:41:44;9.18;;;4.38;;
56073;SDS011;41950;55.840;37.442;2023-10-13T19:44:10;8.60;;;4.22;;
56073;SDS011;41950;55.840;37.442;2023-10-13T19:46:39;8.15;;;3.65;;
56073;SDS011;41950;55.840;37.442;2023-10-13T19:49:12;7.78;;;3.80;;
56073;SDS011;41950;55.840;37.442;2023-10-13T19:51:38;8.32;;;3.65;;
56073;SDS011;41950;55.840;37.442;2023-10-13T19:54:04;8.35;;;3.65;;
56073;SDS011;41950;55.840;37.442;2023-10-13T19:56:30;8.43;;;3.88;;
56073;SDS011;41950;55.840;37.442;2023-10-13T19:58:57;10.20;;;4.60;;
56073;SDS011;41950;55.840;37.442;2023-10-13T20:01:25;7.60;;;4.60;;
56073;SDS011;41950;55.840;37.442;2023-10-13T20:03:52;9.48;;;5.05;;
56073;SDS011;41950;55.840;37.442;2023-10-13T20:08:48;7.90;;;4.40;;
56073;SDS011;41950;55.840;37.442;2023-10-13T20:11:16;8.20;;;4.10;;
56073;SDS011;41950;55.840;37.442;2023-10-13T20:13:42;7.07;;;3.28;;
56073;SDS011;41950;55.840;37.442;2023-10-13T20:16:13;7.22;;;3.85;;
56073;SDS011;41950;55.840;37.442;2023-10-13T20:18:48;7.88;;;3.70;;
56073;SDS011;41950;55.840;37.442;2023-10-13T20:21:23;6.45;;;3.40;;
56073;SDS011;41950;55.840;37.442;2023-10-13T20:23:54;10.65;;;3.75;;
56073;SDS011;41950;55.840;37.442;2023-10-13T20:26:25;7.03;;;3.80;;
56073;SDS011;41950;55.840;37.442;2023-10-13T20:28:55;8.82;;;3.60;;
56073;SDS011;41950;55.840;37.442;2023-10-13T20:31:21;7.68;;;3.58;;
56073;SDS011;41950;55.840;37.442;2023-10-13T20:33:47;7.35;;;3.78;;
56073;SDS011;41950;55.840;37.442;2023-10-13T20:36:12;6.70;;;3.38;;
56073;SDS011;41950;55.840;37.442;2023-10-13T20:38:43;8.80;;;3.50;;
56073;SDS011;41950;55.840;37.442;2023-10-13T20:43:46;7.32;;;3.13;;
56073;SDS011;41950;55.840;37.442;2023-10-13T20:46:13;5.53;;;3.33;;
56073;SDS011;41950;55.840;37.442;2023-10-13T20:48:41;6.10;;;3.08;;
56073;SDS011;41950;55.840;37.442;2023-10-13T20:51:08;6.82;;;3.30;;
56073;SDS011;41950;55.840;37.442;2023-10-13T20:53:39;6.82;;;3.30;;
56073;SDS011;41950;55.840;37.442;2023-10-13T20:56:06;6.50;;;3.25;;
56073;SDS011;41950;55.840;37.442;2023-10-13T20:58:34;6.35;;;2.83;;
56073;SDS011;41950;55.840;37.442;2023-10-13T21:01:06;7.07;;;2.70;;
56073;SDS011;41950;55.840;37.442;2023-10-13T21:03:36;5.75;;;3.20;;
56073;SDS011;41950;55.840;37.442;2023-10-13T21:06:09;7.85;;;3.45;;
56073;SDS011;41950;55.840;37.442;2023-10-13T21:08:39;6.50;;;2.88;;
56073;SDS011;41950;55.840;37.442;2023-10-13T21:11:07;8.20;;;2.63;;
56073;SDS011;41950;55.840;37.442;2023-10-13T21:13:33;7.43;;;2.75;;
56073;SDS011;41950;55.840;37.442;2023-10-13T21:15:59;6.80;;;2.70;;
56073;SDS011;41950;55.840;37.442;2023-10-13T21:18:25;7.28;;;3.10;;
56073;SDS011;41950;55.840;37.442;2023-10-13T21:21:09;5.65;;;2.88;;
56073;SDS011;41950;55.840;37.442;2023-10-13T21:23:36;7.60;;;2.92;;
56073;SDS011;41950;55.840;37.442;2023-10-13T21:26:01;9.10;;;2.85;;
56073;SDS011;41950;55.840;37.442;2023-10-13T21:28:28;5.68;;;2.78;;
56073;SDS011;41950;55.840;37.442;2023-10-13T21:31:06;6.15;;;2.78;;
56073;SDS011;41950;55.840;37.442;2023-10-13T21:33:35;7.53;;;2.67;;
56073;SDS011;41950;55.840;37.442;2023-10-13T21:36:07;8.02;;;2.70;;
56073;SDS011;41950;55.840;37.442;2023-10-13T21:38:39;5.97;;;2.60;;
56073;SDS011;41950;55.840;37.442;2023-10-13T21:41:12;7.13;;;2.60;;
56073;SDS011;41950;55.840;37.442;2023-10-13T21:43:42;8.23;;;2.78;;
56073;SDS011;41950;55.840;37.442;2023-10-13T21:46:13;7.22;;;2.78;;
56073;SDS011;41950;55.840;37.442;2023-10-13T21:48:46;6.68;;;2.70;;
56073;SDS011;41950;55.840;37.442;2023-10-13T21:51:15;6.15;;;2.50;;
56073;SDS011;41950;55.840;37.442;2023-10-13T21:53:43;7.75;;;2.70;;
56073;SDS011;41950;55.840;37.442;2023-10-13T21:56:15;6.05;;;2.47;;
56073;SDS011;41950;55.840;37.442;2023-10-13T21:58:43;7.00;;;2.57;;
56073;SDS011;41950;55.840;37.442;2023-10-13T22:01:12;7.45;;;2.72;;
56073;SDS011;41950;55.840;37.442;2023-10-13T22:03:51;7.00;;;2.50;;
56073;SDS011;41950;55.840;37.442;2023-10-13T22:06:18;5.00;;;2.20;;
56073;SDS011;41950;55.840;37.442;2023-10-13T22:08:48;5.55;;;2.63;;
56073;SDS011;41950;55.840;37.442;2023-10-13T22:11:15;5.95;;;2.33;;
56073;SDS011;41950;55.840;37.442;2023-10-13T22:13:41;6.93;;;2.58;;
56073;SDS011;41950;55.840;37.442;2023-10-13T22:16:07;7.65;;;2.20;;
56073;SDS011;41950;55.840;37.442;2023-10-13T22:18:40;4.55;;;2.58;;
56073;SDS011;41950;55.840;37.442;2023-10-13T22:21:07;6.03;;;2.38;;
56073;SDS011;41950;55.840;37.442;2023-10-13T22:23:34;5.53;;;2.28;;
56073;SDS011;41950;55.840;37.442;2023-10-13T22:26:00;7.03;;;2.55;;
56073;SDS011;41950;55.840;37.442;2023-10-13T22:28:26;5.75;;;2.42;;
56073;SDS011;41950;55.840;37.442;2023-10-13T22:30:53;6.05;;;2.28;;
56073;SDS011;41950;55.840;37.442;2023-10-13T22:33:19;5.15;;;2.45;;
56073;SDS011;41950;55.840;37.442;2023-10-13T22:35:44;5.63;;;2.10;;
56073;SDS011;41950;55.840;37.442;2023-10-13T22:38:10;7.47;;;2.00;;
56073;SDS011;41950;55.840;37.442;2023-10-13T22:40:37;5.80;;;1.95;;
56073;SDS011;41950;55.840;37.442;2023-10-13T22:43:05;5.07;;;1.92;;
56073;SDS011;41950;55.840;37.442;2023-10-13T22:45:32;5.13;;;1.90;;
56073;SDS011;41950;55.840;37.442;2023-10-13T22:47:59;5.65;;;2.30;;
56073;SDS011;41950;55.840;37.442;2023-10-13T22:50:24;5.40;;;2.13;;
56073;SDS011;41950;55.840;37.442;2023-10-13T22:52:50;5.35;;;1.88;;
56073;SDS011;41950;55.840;37.442;2023-10-13T22:55:17;7.95;;;2.38;;
56073;SDS011;41950;55.840;37.442;2023-10-13T22:57:46;5.07;;;2.30;;
56073;SDS011;41950;55.840;37.442;2023-10-13T23:00:12;5.82;;;2.00;;
56073;SDS011;41950;55.840;37.442;2023-10-13T23:02:43;4.85;;;2.08;;
56073;SDS011;41950;55.840;37.442;2023-10-13T23:05:15;6.55;;;1.70;;
56073;SDS011;41950;55.840;37.442;2023-10-13T23:07:57;3.92;;;1.80;;
56073;SDS011;41950;55.840;37.442;2023-10-13T23:10:26;5.03;;;2.00;;